Details for Ryanair at LEAL




Go Back


Latest METAR
Local Time

LEAL 212330Z 28003KT CAVOK 21/18 Q1017 NOSIG

22/06/2018, 01:39:49

Description
Results
Ryanair Logo
Number of Pilots based at LEAL
0 Pilots Based here
Number of Ryanair Flights Departed from LEAL
8 Flights Departed
Number of Ryanair Flights Arrived at LEAL
8 Flights Arrived
Number of Ryanair Schedules Departing from LEAL
124 Schedules
Number of Ryanair Schedules Arriving at LEAL
128 Schedules
Number of Ryanair Schedules Departing from LEAL availible today
40 Schedules Today
Number of Ryanair Schedules Arriving at LEAL availible today
39 Schedules Today
Average Landing Rate at LEAL
-245 fpm
Ryanair Average Landing Rate at LEAL
-247 fpm
Total Fuel Purchased at LEAL by Ryanair
44,073.30 kgs / 97,164.00 lbs

Pilots Based at LEAL


Pilot ID
Pilot Name
Pilot Rank
No. of Flights
No. of Flying Hours
There are no pilots assigned to this hub!   Will you be the first?
Content